Algoma Mariner — CFN5517 — position and weather

sailwx.info

Track history (hours):
 
Tides and Currents Weather Stations Pressure Air Temp Water Temp Dewpoint Dewpoint Depression Visibility Wind Speed Wind Dir Waves Ship Positions

Algoma Mariner

Last reported at 2016-Jun-30 00:33 UTC. Time now 2016-Jun-30 01:31 UTC.
Position N 46°06' W 072°59'.

Length 225 m; draft 9.3 m.

Type: Cargo ship. MMSI: 316014050.

Date/timePositionNaut miles runAvg speedWind from/ knotsBaromVisibWave heightAir tempDewpointWater temp
2016-Jun-30 00:33N 46°06' W 072°59'14 9.9
2016-Jun-29 23:10N 46°15' W 072°44'  
2016-Jun-22 15:34N 46°05' W 073°01'1212.3
2016-Jun-22 14:34N 45°55' W 073°13'6 6.0
2016-Jun-22 13:33N 45°50' W 073°17'0 0.0
2016-Jun-22 12:33N 45°50' W 073°17'0 0.0
2016-Jun-22 11:33N 45°50' W 073°17'0 0.0
2016-Jun-22 10:33N 45°50' W 073°17'0 0.0
2016-Jun-22 09:33N 45°50' W 073°17'0 0.0
2016-Jun-22 08:33N 45°50' W 073°17'0 0.0
2016-Jun-22 07:33N 45°50' W 073°17'0 0.0
2016-Jun-22 06:33N 45°50' W 073°17'0 0.0
2016-Jun-22 05:33N 45°50' W 073°17'0 0.0
2016-Jun-22 04:33N 45°50' W 073°17'0 0.0
2016-Jun-22 03:33N 45°50' W 073°17'0 0.0
2016-Jun-22 02:33N 45°50' W 073°17'0 0.0
2016-Jun-22 01:33N 45°50' W 073°17'0 0.0
2016-Jun-22 00:33N 45°50' W 073°17'5 5.0
2016-Jun-21 23:34N 45°54' W 073°13'9 9.1
2016-Jun-21 22:33N 46°03' W 073°09'9 8.9
2016-Jun-21 21:32N 46°07' W 072°58'  
Track history (hours):
 
Tides and Currents Weather Stations Pressure Air Temp Water Temp Dewpoint Dewpoint Depression Visibility Wind Speed Wind Dir Waves Ship Positions

Algoma Mariner

Last reported at 2016-Jun-30 00:33 UTC. Time now 2016-Jun-30 01:31 UTC.
Position N 46°06' W 072°59'.

Length 225 m; draft 9.3 m.

Type: Cargo ship. MMSI: 316014050.

Date/timePositionNaut miles runAvg speedWind from/ knotsBaromVisibWave heightAir tempDewpointWater temp
2016-Jun-30 00:33N 46°06' W 072°59'14 9.9
2016-Jun-29 23:10N 46°15' W 072°44'  
2016-Jun-22 15:34N 46°05' W 073°01'1212.3
2016-Jun-22 14:34N 45°55' W 073°13'6 6.0
2016-Jun-22 13:33N 45°50' W 073°17'0 0.0
2016-Jun-22 12:33N 45°50' W 073°17'0 0.0
2016-Jun-22 11:33N 45°50' W 073°17'0 0.0
2016-Jun-22 10:33N 45°50' W 073°17'0 0.0
2016-Jun-22 09:33N 45°50' W 073°17'0 0.0
2016-Jun-22 08:33N 45°50' W 073°17'0 0.0
2016-Jun-22 07:33N 45°50' W 073°17'0 0.0
2016-Jun-22 06:33N 45°50' W 073°17'0 0.0
2016-Jun-22 05:33N 45°50' W 073°17'0 0.0
2016-Jun-22 04:33N 45°50' W 073°17'0 0.0
2016-Jun-22 03:33N 45°50' W 073°17'0 0.0
2016-Jun-22 02:33N 45°50' W 073°17'0 0.0
2016-Jun-22 01:33N 45°50' W 073°17'0 0.0
2016-Jun-22 00:33N 45°50' W 073°17'5 5.0
2016-Jun-21 23:34N 45°54' W 073°13'9 9.1
2016-Jun-21 22:33N 46°03' W 073°09'9 8.9
2016-Jun-21 21:32N 46°07' W 072°58'  

Dump ship's entire track history